Accueil
METAR-TAF:

METAR-TAF

Aéroports :

Aéroport de Heringsdorf

Heringsdorf, Allemagne

latitude: 53-53N, longitude: 014-09E, altitude: 28 m

Observation

Le bulletin a été fait il y a 18 minutes, à 09:20 UTC
Vent 13 kt de nord-est, variant entre nord et est
Température 15°C
Humidité 51%
Pression 1026 hPa
Visibilité 10 km ou plus
pas de nuages en-dessous de 1500 mètres et pas de cumulonimbus.

METAR: EDAH 300920Z 04013KT 010V080 CAVOK 15/05 Q1026

Heure: 11:38 (09:38 UTC)

Prévision

Le bulletin a été fait il y a 1 heure et 38 minutes, à 08:00 UTC
Prévision valable du 30 à 09 UTC au 30 à 18 UTC
Vent 12 kt de nord/nord-est
Visibilité 10 km ou plus
pas de nuages en-dessous de 1500 mètres et pas de cumulonimbus.
Temporairement
du 30 à 09 UTC au 30 à 16 UTC
Vent 15 kt de nord-est avec des rafales jusqu'à 25 kt

TAF: EDAH 300800Z 3009/3018 03012KT CAVOK TEMPO 3009/3016 04015G25KT

Observations et prévisions météorologiques de plus de 4000 aéroports (messages METAR et TAF).

Les stations disponibles sont représentées par des disques jaunes et rouges sur la carte.

Passer la souris dessus pour voir le nom de la station.

Cliquer dessus pour voir les observations et prévisions météorologiques.

Pour changer de carte: cliquez sur les boutons verts avec une croix noire pour zoomer, sur le bouton vert avec un tiret pour effectuer un zoom arrière, ou sur les flèches vertes pour les cartes adjacentes.


METAR-TAF: